createdAt,value
2019-03-30T00:01:10.633Z,18.70
2019-03-30T00:03:39.881Z,18.70
2019-03-30T00:06:09.211Z,18.70
2019-03-30T00:08:38.968Z,18.80
2019-03-30T00:11:08.310Z,18.80
2019-03-30T00:13:37.798Z,19.00
2019-03-30T00:16:07.362Z,19.20
2019-03-30T00:18:36.852Z,19.20
2019-03-30T00:21:06.342Z,19.40
2019-03-30T00:23:36.002Z,19.30
2019-03-30T00:26:06.332Z,19.20
2019-03-30T00:28:36.795Z,19.20
2019-03-30T00:31:06.497Z,19.20
2019-03-30T00:33:35.799Z,19.30
2019-03-30T00:36:05.179Z,19.20
2019-03-30T00:38:34.775Z,19.10
2019-03-30T00:41:04.412Z,19.10
2019-03-30T00:43:33.868Z,18.90
2019-03-30T00:46:03.331Z,18.80
2019-03-30T00:48:32.634Z,18.70
2019-03-30T00:51:02.307Z,18.70
2019-03-30T00:53:31.975Z,18.60
2019-03-30T00:56:01.406Z,18.50
2019-03-30T00:58:30.959Z,18.50
2019-03-30T01:01:00.485Z,18.50
2019-03-30T01:03:29.772Z,18.40
2019-03-30T01:05:59.522Z,18.40
2019-03-30T01:08:28.873Z,18.40
2019-03-30T01:10:58.643Z,18.30
2019-03-30T01:13:28.765Z,18.10
2019-03-30T01:15:58.337Z,18.10
2019-03-30T01:18:27.913Z,18.00
2019-03-30T01:20:57.620Z,17.90
2019-03-30T01:23:26.888Z,17.80
2019-03-30T01:25:56.491Z,17.80
2019-03-30T01:28:26.050Z,17.80
2019-03-30T01:30:55.467Z,17.70
2019-03-30T01:33:24.891Z,17.60
2019-03-30T01:35:54.110Z,17.50
2019-03-30T01:38:24.019Z,17.30
2019-03-30T01:40:53.469Z,17.30
2019-03-30T01:43:22.974Z,17.20
2019-03-30T01:45:52.381Z,17.20
2019-03-30T01:48:21.970Z,17.10
2019-03-30T01:50:51.431Z,17.00
2019-03-30T01:53:22.122Z,17.00
2019-03-30T01:55:51.650Z,16.90
2019-03-30T01:58:21.016Z,16.70
2019-03-30T02:00:50.475Z,16.60
2019-03-30T02:03:20.129Z,16.50
2019-03-30T02:05:49.545Z,16.40
2019-03-30T02:08:18.994Z,16.40
2019-03-30T02:10:48.703Z,16.30
2019-03-30T02:13:19.445Z,16.20
2019-03-30T02:15:48.798Z,16.20
2019-03-30T02:18:18.318Z,16.20
2019-03-30T02:20:48.906Z,16.10
2019-03-30T02:23:18.296Z,16.00
2019-03-30T02:25:47.987Z,15.90
2019-03-30T02:28:17.661Z,15.80
2019-03-30T02:30:46.992Z,15.70
2019-03-30T02:33:16.530Z,15.50
2019-03-30T02:35:46.043Z,15.50
2019-03-30T02:38:15.371Z,15.40
2019-03-30T02:40:44.979Z,15.30
2019-03-30T02:43:14.478Z,15.20
2019-03-30T02:45:44.127Z,15.10
2019-03-30T02:48:13.744Z,15.00
2019-03-30T02:50:49.714Z,14.90
2019-03-30T02:53:13.074Z,14.80
2019-03-30T02:55:42.597Z,14.70
2019-03-30T02:58:12.274Z,14.70
2019-03-30T03:00:41.505Z,14.60
2019-03-30T03:03:10.970Z,14.60
2019-03-30T03:05:40.423Z,14.60
2019-03-30T03:08:09.673Z,14.60
2019-03-30T03:10:40.131Z,14.50
2019-03-30T03:13:10.186Z,14.50
2019-03-30T03:15:39.840Z,14.50
2019-03-30T03:18:09.623Z,14.50
2019-03-30T03:20:38.882Z,14.50
2019-03-30T03:23:08.344Z,14.50
2019-03-30T03:25:38.038Z,14.40
2019-03-30T03:28:07.424Z,14.40
2019-03-30T03:30:36.613Z,14.30
2019-03-30T03:33:06.067Z,14.30
2019-03-30T03:35:37.340Z,14.30
2019-03-30T03:38:06.837Z,14.30
2019-03-30T03:40:36.129Z,14.20
2019-03-30T03:43:05.577Z,14.10
2019-03-30T03:45:35.211Z,14.10
2019-03-30T03:48:04.807Z,14.10
2019-03-30T03:50:43.362Z,14.00
2019-03-30T03:53:13.889Z,14.00
2019-03-30T03:55:43.388Z,13.90
2019-03-30T03:58:12.928Z,13.90
2019-03-30T04:00:42.668Z,13.80
2019-03-30T04:03:12.561Z,13.70
2019-03-30T04:05:42.424Z,13.70
2019-03-30T04:08:12.253Z,13.70
2019-03-30T04:10:42.696Z,13.60
2019-03-30T04:13:12.749Z,13.60
2019-03-30T04:15:42.664Z,13.50
2019-03-30T04:18:13.544Z,13.40
2019-03-30T04:20:43.037Z,13.40
2019-03-30T04:23:13.182Z,13.30
2019-03-30T04:25:42.763Z,13.30
2019-03-30T04:28:12.242Z,13.30
2019-03-30T04:30:41.672Z,13.10
2019-03-30T04:33:11.108Z,13.00
2019-03-30T04:35:40.766Z,12.90
2019-03-30T04:38:13.936Z,12.90
2019-03-30T04:40:40.079Z,12.70
2019-03-30T04:43:09.739Z,12.70
2019-03-30T04:45:40.183Z,12.50
2019-03-30T04:48:09.718Z,12.50
2019-03-30T04:50:39.081Z,12.50
2019-03-30T04:53:08.596Z,12.40
2019-03-30T04:55:38.013Z,12.40
2019-03-30T04:58:09.219Z,12.30
2019-03-30T05:00:36.989Z,12.30
2019-03-30T05:03:06.550Z,12.20
2019-03-30T05:05:36.088Z,12.10
2019-03-30T05:08:05.713Z,12.10
2019-03-30T05:10:35.317Z,12.00
2019-03-30T05:13:04.795Z,11.90
2019-03-30T05:15:34.250Z,11.90
2019-03-30T05:18:03.670Z,11.80
2019-03-30T05:20:33.296Z,11.80
2019-03-30T05:23:02.666Z,11.70
2019-03-30T05:25:32.248Z,11.70
2019-03-30T05:28:01.969Z,11.70
2019-03-30T05:30:31.701Z,11.60
2019-03-30T05:33:05.938Z,11.60
2019-03-30T05:35:30.971Z,11.40
2019-03-30T05:38:01.683Z,11.30
2019-03-30T05:40:31.091Z,11.30
2019-03-30T05:43:00.481Z,11.20
2019-03-30T05:45:29.942Z,11.20
2019-03-30T05:47:58.616Z,11.20
2019-03-30T05:50:28.321Z,11.20
2019-03-30T05:52:57.791Z,11.20
2019-03-30T05:55:27.266Z,11.20
2019-03-30T05:57:56.823Z,11.20
2019-03-30T06:00:26.129Z,11.10
2019-03-30T06:02:55.518Z,11.10
2019-03-30T06:05:25.085Z,11.00
2019-03-30T06:07:54.833Z,11.00
2019-03-30T06:10:24.315Z,11.00
2019-03-30T06:12:53.585Z,10.90
2019-03-30T06:15:23.195Z,10.90
2019-03-30T06:17:52.868Z,10.90
2019-03-30T06:20:22.624Z,10.90
2019-03-30T06:22:52.153Z,10.90
2019-03-30T06:25:21.674Z,10.80
2019-03-30T06:27:51.304Z,10.80
2019-03-30T06:30:21.678Z,10.80
2019-03-30T06:32:51.110Z,10.80
2019-03-30T06:35:20.558Z,10.70
2019-03-30T06:37:50.745Z,10.80
2019-03-30T06:40:20.209Z,10.70
2019-03-30T06:42:49.385Z,10.70
2019-03-30T06:45:19.633Z,10.70
2019-03-30T06:47:48.931Z,10.70
2019-03-30T06:50:18.365Z,10.70
2019-03-30T06:52:57.564Z,10.70
2019-03-30T06:55:17.886Z,10.70
2019-03-30T06:57:47.429Z,10.60
2019-03-30T07:00:17.159Z,10.60
2019-03-30T07:02:47.286Z,10.60
2019-03-30T07:05:16.863Z,10.60
2019-03-30T07:07:46.977Z,10.50
2019-03-30T07:10:16.530Z,10.50
2019-03-30T07:12:46.662Z,10.50
2019-03-30T07:15:16.101Z,10.50
2019-03-30T07:17:46.014Z,10.40
2019-03-30T07:20:25.950Z,10.30
2019-03-30T07:22:55.848Z,10.30
2019-03-30T07:25:25.507Z,10.30
2019-03-30T07:27:55.034Z,10.30
2019-03-30T07:30:24.657Z,10.20
2019-03-30T07:32:54.105Z,10.20
2019-03-30T07:35:23.419Z,10.20
2019-03-30T07:37:52.904Z,10.20
2019-03-30T07:40:22.448Z,10.20
2019-03-30T07:42:52.005Z,10.10
2019-03-30T07:45:21.408Z,10.00
2019-03-30T07:47:50.996Z,10.00
2019-03-30T07:50:20.401Z,9.90
2019-03-30T07:52:50.014Z,9.90
2019-03-30T07:55:20.181Z,9.80
2019-03-30T07:57:49.731Z,9.80
2019-03-30T08:00:19.061Z,9.80
2019-03-30T08:02:48.297Z,9.80
2019-03-30T08:05:17.575Z,9.80
2019-03-30T08:07:47.011Z,9.80
2019-03-30T08:10:16.535Z,9.70
2019-03-30T08:12:45.858Z,9.60
2019-03-30T08:15:15.389Z,9.60
2019-03-30T08:17:44.702Z,9.60
2019-03-30T08:20:15.048Z,9.60
2019-03-30T08:22:44.471Z,9.60
2019-03-30T08:25:15.181Z,9.50
2019-03-30T08:27:44.705Z,9.50
2019-03-30T08:30:14.245Z,9.40
2019-03-30T08:32:43.542Z,9.40
2019-03-30T08:35:12.994Z,9.40
2019-03-30T08:37:42.391Z,9.30
2019-03-30T08:40:12.879Z,9.20
2019-03-30T08:42:42.165Z,9.20
2019-03-30T08:45:11.497Z,9.20
2019-03-30T08:47:40.233Z,9.20
2019-03-30T08:50:10.377Z,9.10
2019-03-30T08:52:39.983Z,9.10
2019-03-30T08:55:09.457Z,9.10
2019-03-30T08:57:39.304Z,9.10
2019-03-30T09:00:08.966Z,9.10
2019-03-30T09:02:38.657Z,9.10
2019-03-30T09:05:08.840Z,9.10
2019-03-30T09:07:37.877Z,9.10
2019-03-30T09:10:07.910Z,9.00
2019-03-30T09:12:38.111Z,9.00
2019-03-30T09:15:08.710Z,9.00
2019-03-30T09:17:37.634Z,9.00
2019-03-30T09:20:07.306Z,9.00
2019-03-30T09:22:36.662Z,8.90
2019-03-30T09:25:07.102Z,8.90
2019-03-30T09:27:36.161Z,8.90
2019-03-30T09:30:06.178Z,8.90
2019-03-30T09:32:35.385Z,8.90
2019-03-30T09:35:05.145Z,8.90
2019-03-30T09:37:34.830Z,8.90
2019-03-30T09:40:06.291Z,8.90
2019-03-30T09:42:35.580Z,8.90
2019-03-30T09:45:08.799Z,8.80
2019-03-30T09:47:38.470Z,8.80
2019-03-30T09:50:09.261Z,8.80
2019-03-30T09:52:38.773Z,8.80
2019-03-30T09:55:09.476Z,8.70
2019-03-30T09:57:38.972Z,8.70
2019-03-30T10:00:09.180Z,8.70
2019-03-30T10:02:38.405Z,8.70
2019-03-30T10:05:07.886Z,8.70
2019-03-30T10:07:37.602Z,8.60
2019-03-30T10:10:07.399Z,8.50
2019-03-30T10:12:37.445Z,8.40
2019-03-30T10:15:07.712Z,8.40
2019-03-30T10:17:37.126Z,8.40
2019-03-30T10:20:07.763Z,8.40
2019-03-30T10:22:36.917Z,8.40
2019-03-30T10:25:06.624Z,8.40
2019-03-30T10:27:35.802Z,8.40
2019-03-30T10:30:06.011Z,8.50
2019-03-30T10:32:35.730Z,8.40
2019-03-30T10:35:06.359Z,8.40
2019-03-30T10:37:35.759Z,8.40
2019-03-30T10:40:07.340Z,8.40
2019-03-30T10:42:36.826Z,8.40
2019-03-30T10:45:08.474Z,8.40
2019-03-30T10:47:37.957Z,8.30
2019-03-30T10:50:07.731Z,8.30
2019-03-30T10:52:36.963Z,8.30
2019-03-30T10:55:06.529Z,8.30
2019-03-30T10:57:35.779Z,8.30
2019-03-30T11:00:06.316Z,8.30
2019-03-30T11:02:36.380Z,8.20
2019-03-30T11:05:06.058Z,8.20
2019-03-30T11:07:35.691Z,8.30
2019-03-30T11:10:06.075Z,8.30
2019-03-30T11:12:35.466Z,8.30
2019-03-30T11:15:05.832Z,8.30
2019-03-30T11:17:35.230Z,8.20
2019-03-30T11:20:04.766Z,8.20
2019-03-30T11:22:34.217Z,8.20
2019-03-30T11:25:08.077Z,8.30
2019-03-30T11:27:34.551Z,8.30
2019-03-30T11:30:04.078Z,8.20
2019-03-30T11:32:34.747Z,8.20
2019-03-30T11:35:04.263Z,8.20
2019-03-30T11:37:33.469Z,8.20
2019-03-30T11:40:02.684Z,8.10
2019-03-30T11:42:33.130Z,8.10
2019-03-30T11:45:02.439Z,8.10
2019-03-30T11:47:32.086Z,8.10
2019-03-30T11:50:01.622Z,8.00
2019-03-30T11:52:31.012Z,8.00
2019-03-30T11:55:00.581Z,8.00
2019-03-30T11:57:29.737Z,8.00
2019-03-30T11:59:59.132Z,8.00
2019-03-30T12:02:28.765Z,8.00
2019-03-30T12:04:58.085Z,8.00
2019-03-30T12:07:27.228Z,7.90
2019-03-30T12:09:56.721Z,7.80
2019-03-30T12:12:26.341Z,7.80
2019-03-30T12:14:55.993Z,7.80
2019-03-30T12:17:25.742Z,7.80
2019-03-30T12:19:55.129Z,7.80
2019-03-30T12:22:24.706Z,7.80
2019-03-30T12:24:54.004Z,7.80
2019-03-30T12:27:23.379Z,7.80
2019-03-30T12:29:53.046Z,7.80
2019-03-30T12:32:22.468Z,7.70
2019-03-30T12:34:52.222Z,7.70
2019-03-30T12:37:21.729Z,7.70
2019-03-30T12:39:51.020Z,7.60
2019-03-30T12:42:19.812Z,7.60
2019-03-30T12:44:49.465Z,7.60
2019-03-30T12:47:19.084Z,7.50
2019-03-30T12:49:48.561Z,7.50
2019-03-30T12:52:18.053Z,7.50
2019-03-30T12:54:48.416Z,7.50
2019-03-30T12:57:17.823Z,7.50
2019-03-30T12:59:47.367Z,7.50
2019-03-30T13:02:16.907Z,7.50
2019-03-30T13:04:46.224Z,7.40
2019-03-30T13:07:15.826Z,7.40
2019-03-30T13:09:45.201Z,7.40
2019-03-30T13:12:14.807Z,7.30
2019-03-30T13:14:44.392Z,7.30
2019-03-30T13:17:13.760Z,7.30
2019-03-30T13:19:43.207Z,7.30
2019-03-30T13:22:12.917Z,7.30
2019-03-30T13:24:42.671Z,7.20
2019-03-30T13:27:13.032Z,7.30
2019-03-30T13:29:41.944Z,7.20
2019-03-30T13:32:12.217Z,7.20
2019-03-30T13:34:41.874Z,7.20
2019-03-30T13:37:17.948Z,7.20
2019-03-30T13:39:47.334Z,7.10
2019-03-30T13:42:16.820Z,7.10
2019-03-30T13:44:46.445Z,7.10
2019-03-30T13:47:15.547Z,7.10
2019-03-30T13:49:45.079Z,7.10
2019-03-30T13:52:14.385Z,7.10
2019-03-30T13:54:43.802Z,7.10
2019-03-30T13:57:13.309Z,7.10
2019-03-30T13:59:42.608Z,7.10
2019-03-30T14:02:12.058Z,7.10
2019-03-30T14:04:41.694Z,7.10
2019-03-30T14:07:10.855Z,7.10
2019-03-30T14:09:40.309Z,7.10
2019-03-30T14:12:09.825Z,7.20
2019-03-30T14:14:39.367Z,7.20
2019-03-30T14:17:08.885Z,7.20
2019-03-30T14:19:37.787Z,7.10
2019-03-30T14:22:07.197Z,7.20
2019-03-30T14:24:36.755Z,7.20
2019-03-30T14:27:06.054Z,7.20
2019-03-30T14:29:36.625Z,7.20
2019-03-30T14:32:06.138Z,7.20
2019-03-30T14:34:36.371Z,7.30
2019-03-30T14:37:06.035Z,7.30
2019-03-30T14:39:42.865Z,7.40
2019-03-30T14:42:12.819Z,7.60
2019-03-30T14:44:42.355Z,7.60
2019-03-30T14:47:11.900Z,7.70
2019-03-30T14:49:41.309Z,7.80
2019-03-30T14:52:10.826Z,7.90
2019-03-30T14:54:52.008Z,8.00
2019-03-30T14:57:09.958Z,8.00
2019-03-30T14:59:39.227Z,8.10
2019-03-30T15:02:08.855Z,8.20
2019-03-30T15:04:38.446Z,8.10
2019-03-30T15:07:07.633Z,8.10
2019-03-30T15:09:37.944Z,8.30
2019-03-30T15:12:07.679Z,8.30
2019-03-30T15:14:37.042Z,8.50
2019-03-30T15:17:06.779Z,8.70
2019-03-30T15:19:36.540Z,9.00
2019-03-30T15:22:06.037Z,9.40
2019-03-30T15:24:35.194Z,9.70
2019-03-30T15:27:04.605Z,10.10
2019-03-30T15:29:34.118Z,10.70
2019-03-30T15:32:03.542Z,11.70
2019-03-30T15:34:32.943Z,12.60
2019-03-30T15:37:02.790Z,13.60
2019-03-30T15:39:32.534Z,14.10
2019-03-30T15:42:02.161Z,14.30
2019-03-30T15:44:31.468Z,14.60
2019-03-30T15:47:00.604Z,15.60
2019-03-30T15:49:30.215Z,15.80
2019-03-30T15:52:13.410Z,15.60
2019-03-30T15:54:29.356Z,16.60
2019-03-30T15:56:58.731Z,17.10
2019-03-30T15:59:28.296Z,17.90
2019-03-30T16:01:57.677Z,20.20
2019-03-30T16:04:26.406Z,22.50
2019-03-30T16:06:55.637Z,24.40
2019-03-30T16:09:25.920Z,26.60
2019-03-30T16:11:55.192Z,26.50
2019-03-30T16:14:24.684Z,27.70
2019-03-30T16:16:54.258Z,28.70
2019-03-30T16:19:23.436Z,29.10
2019-03-30T16:21:52.881Z,30.10
2019-03-30T16:24:22.267Z,29.80
2019-03-30T16:26:51.804Z,29.40
2019-03-30T16:29:21.527Z,30.50
2019-03-30T16:31:51.206Z,32.00
2019-03-30T16:34:21.365Z,33.20
2019-03-30T16:36:50.637Z,33.10
2019-03-30T16:39:20.351Z,32.80
2019-03-30T16:41:50.500Z,32.10
2019-03-30T16:44:20.410Z,31.10
2019-03-30T16:46:49.983Z,30.00
2019-03-30T16:49:19.718Z,29.60
2019-03-30T16:51:48.873Z,30.70
2019-03-30T16:54:18.502Z,31.20
2019-03-30T16:56:47.847Z,30.20
2019-03-30T16:59:17.344Z,29.90
2019-03-30T17:01:46.716Z,30.40
2019-03-30T17:04:16.119Z,31.50
2019-03-30T17:06:46.506Z,32.70
2019-03-30T17:09:15.794Z,32.60
2019-03-30T17:11:45.418Z,33.90
2019-03-30T17:14:14.980Z,35.40
2019-03-30T17:16:44.485Z,37.10
2019-03-30T17:19:13.931Z,38.90
2019-03-30T17:21:43.361Z,39.70
2019-03-30T17:24:13.396Z,40.40
2019-03-30T17:26:42.700Z,40.30
2019-03-30T17:29:14.042Z,41.10
2019-03-30T17:31:43.553Z,41.40
2019-03-30T17:34:13.230Z,41.50
2019-03-30T17:36:42.651Z,42.20
2019-03-30T17:39:12.485Z,42.40
2019-03-30T17:41:42.564Z,43.10
2019-03-30T17:44:12.597Z,43.30
2019-03-30T17:46:43.596Z,43.00
2019-03-30T17:49:12.992Z,43.00
2019-03-30T17:51:42.477Z,43.70
2019-03-30T17:54:12.067Z,44.50
2019-03-30T17:56:41.583Z,44.30
2019-03-30T17:59:11.346Z,44.30
2019-03-30T18:01:40.863Z,44.80
2019-03-30T18:04:11.554Z,45.30
2019-03-30T18:06:41.316Z,45.20
2019-03-30T18:09:11.587Z,44.70
2019-03-30T18:11:44.413Z,44.50
2019-03-30T18:14:13.919Z,44.10
2019-03-30T18:16:43.447Z,45.20
2019-03-30T18:19:13.120Z,45.60
2019-03-30T18:21:44.302Z,46.10
2019-03-30T18:24:13.950Z,46.10
2019-03-30T18:26:43.140Z,46.20
2019-03-30T18:29:12.561Z,44.40
2019-03-30T18:31:43.329Z,44.80
2019-03-30T18:34:13.188Z,45.10
2019-03-30T18:36:43.509Z,45.70
2019-03-30T18:39:13.151Z,44.60
2019-03-30T18:41:42.988Z,42.60
2019-03-30T18:44:13.568Z,38.20
2019-03-30T18:46:42.946Z,38.10
2019-03-30T18:49:13.042Z,35.30
2019-03-30T18:51:42.915Z,34.30
2019-03-30T18:54:13.823Z,34.50
2019-03-30T18:56:43.300Z,34.50
2019-03-30T18:59:12.618Z,33.10
2019-03-30T19:01:42.626Z,31.00
2019-03-30T19:04:11.836Z,31.00
2019-03-30T19:06:41.419Z,31.10
2019-03-30T19:09:11.672Z,32.20
2019-03-30T19:11:41.305Z,32.20
2019-03-30T19:14:10.617Z,31.10
2019-03-30T19:16:40.336Z,30.10
2019-03-30T19:19:09.992Z,30.00
2019-03-30T19:21:39.475Z,29.50
2019-03-30T19:24:08.969Z,28.70
2019-03-30T19:26:37.908Z,29.70
2019-03-30T19:29:09.375Z,28.50
2019-03-30T19:31:38.934Z,29.00
2019-03-30T19:34:09.576Z,28.70
2019-03-30T19:36:39.541Z,28.70
2019-03-30T19:39:09.583Z,27.50
2019-03-30T19:41:38.794Z,27.30
2019-03-30T19:44:08.199Z,27.80
2019-03-30T19:46:37.830Z,28.50
2019-03-30T19:49:07.293Z,29.70
2019-03-30T19:51:37.063Z,31.40
2019-03-30T19:54:06.447Z,33.20
2019-03-30T19:56:36.013Z,35.40
2019-03-30T19:59:11.023Z,37.20
2019-03-30T20:01:35.153Z,38.20
2019-03-30T20:04:07.753Z,36.50
2019-03-30T20:06:35.467Z,36.50
2019-03-30T20:09:05.425Z,34.20
2019-03-30T20:11:35.028Z,31.80
2019-03-30T20:14:04.406Z,30.10
2019-03-30T20:16:33.629Z,28.00
2019-03-30T20:19:11.902Z,26.80
2019-03-30T20:21:32.731Z,26.00
2019-03-30T20:24:02.286Z,25.30
2019-03-30T20:26:31.511Z,24.90
2019-03-30T20:29:00.907Z,24.60
2019-03-30T20:31:30.268Z,24.30
2019-03-30T20:33:59.873Z,23.90
2019-03-30T20:36:29.043Z,23.50
2019-03-30T20:38:59.199Z,23.20
2019-03-30T20:41:28.723Z,23.20
2019-03-30T20:43:58.213Z,23.20
2019-03-30T20:46:27.419Z,22.90
2019-03-30T20:48:56.729Z,22.80
2019-03-30T20:51:26.248Z,22.60
2019-03-30T20:53:56.164Z,22.30
2019-03-30T20:56:25.756Z,22.20
2019-03-30T20:58:55.467Z,22.00
2019-03-30T21:01:24.911Z,21.90
2019-03-30T21:03:54.226Z,22.10
2019-03-30T21:06:24.018Z,22.00
2019-03-30T21:08:54.188Z,22.10
2019-03-30T21:11:23.778Z,22.10
2019-03-30T21:13:56.554Z,22.50
2019-03-30T21:16:22.970Z,22.30
2019-03-30T21:18:52.676Z,22.20
2019-03-30T21:21:23.215Z,21.50
2019-03-30T21:23:53.654Z,21.40
2019-03-30T21:26:23.325Z,21.30
2019-03-30T21:28:52.904Z,21.50
2019-03-30T21:31:22.591Z,21.60
2019-03-30T21:33:51.745Z,21.30
2019-03-30T21:36:21.045Z,21.20
2019-03-30T21:38:50.296Z,21.30
2019-03-30T21:41:19.870Z,21.40
2019-03-30T21:43:49.575Z,21.50
2019-03-30T21:46:19.030Z,21.30
2019-03-30T21:48:47.906Z,21.20
2019-03-30T21:51:17.340Z,21.00
2019-03-30T21:53:46.591Z,20.80
2019-03-30T21:56:16.599Z,20.60
2019-03-30T21:58:45.933Z,20.80
2019-03-30T22:01:15.727Z,20.60
2019-03-30T22:03:45.028Z,20.00
2019-03-30T22:06:14.538Z,20.00
2019-03-30T22:08:44.459Z,19.80
2019-03-30T22:11:14.074Z,19.60
2019-03-30T22:13:43.709Z,19.50
2019-03-30T22:16:13.359Z,19.50
2019-03-30T22:18:43.355Z,19.40
2019-03-30T22:21:12.555Z,19.30
2019-03-30T22:23:41.950Z,19.20
2019-03-30T22:26:11.589Z,19.30
2019-03-30T22:28:41.106Z,19.50
2019-03-30T22:31:11.221Z,19.70
2019-03-30T22:33:40.564Z,19.70
2019-03-30T22:36:10.000Z,19.80
2019-03-30T22:38:39.362Z,19.80
2019-03-30T22:41:09.245Z,19.80
2019-03-30T22:43:38.337Z,19.80
2019-03-30T22:46:08.057Z,19.70
2019-03-30T22:48:37.449Z,19.70
2019-03-30T22:51:07.301Z,19.70
2019-03-30T22:53:36.864Z,19.50
2019-03-30T22:56:09.731Z,19.50
2019-03-30T22:58:40.587Z,19.60
2019-03-30T23:01:10.414Z,19.60
2019-03-30T23:03:40.115Z,19.50
2019-03-30T23:06:09.322Z,19.40
2019-03-30T23:08:38.937Z,19.30
2019-03-30T23:11:08.437Z,19.30
2019-03-30T23:13:37.760Z,19.30
2019-03-30T23:16:07.435Z,19.30
2019-03-30T23:18:37.084Z,19.20
2019-03-30T23:21:06.538Z,19.10
2019-03-30T23:23:36.007Z,19.00
2019-03-30T23:26:05.360Z,18.90
2019-03-30T23:28:34.793Z,18.90
2019-03-30T23:31:04.472Z,18.90
2019-03-30T23:33:33.700Z,18.90
2019-03-30T23:36:03.228Z,18.90
2019-03-30T23:38:32.773Z,18.80
2019-03-30T23:41:02.432Z,18.90
2019-03-30T23:43:32.040Z,18.90
2019-03-30T23:46:01.402Z,18.80
2019-03-30T23:48:30.746Z,18.70
2019-03-30T23:51:00.096Z,18.60
2019-03-30T23:53:29.629Z,18.60
2019-03-30T23:55:58.892Z,18.70
2019-03-30T23:58:29.367Z,18.50
